• Join FlightAware (Why Join?)
  • Login
  • US Flag 
04:23AM EDT


 

Airport Tracker/Info


-or-


 

Live Flight TrackerFlight Track Log ✈ RPA4907 ✈ 03-Jul-2013 ✈ KEWR - KBWI

Flight Track Log - Related Links

Times and Time Zones

All times are in EDT time to prevent confusion due to time zone crossing. See the RPA4907 flight status page for this flight to view local times or setup timezone preferences in your user account.

Time Position Orientation Groundspeed Altitude Reporting Facility
EDT Latitude Longitude Course Direction KTS MPH feet Rate Location/Type
02:52PM 40.6667 -74.1833 246° West 178 205 1,000  Level New York TRACON
02:53PM 40.6333 -74.2167 217° Southwest 220 253 2,500 2,340 Climbing New York TRACON
02:54PM 40.6167 -74.2833 252° West 191 220 5,500 2,640 Climbing New York TRACON
02:55PM 40.5772 -74.4972 245° Southwest  Level FlightAware Approximate
02:55PM 40.6167 -74.3500 270° West 189 217 7,800  Level New York TRACON
02:56PM 40.5372 -74.6095 245° Southwest  Level FlightAware Approximate
02:56PM 40.6167 -74.4167 270° West 196 226 9,800  Level New York TRACON
02:57PM 40.4995 -74.7183 246° West  Level FlightAware Approximate
02:57PM 40.6000 -74.5000 255° West 212 244 11,000  Level New York TRACON
02:58PM 40.4630 -74.8277 246° West  Level FlightAware Approximate
02:58PM 40.5667 -74.5667 237° Southwest 229 264 12,400  Level New York TRACON
02:59PM 40.5500 -74.6500 255° West 241 277 13,700 780 Climbing New York TRACON
03:01PM 40.4750 -74.8308 241° Southwest 283 326 14,900 660 Climbing New York Center
03:02PM 40.4406 -74.9214 243° Southwest 283 326 15,800 540 Climbing New York Center
03:03PM 40.4003 -75.0061 238° Southwest 283 326 16,100 60 Climbing New York Center
03:04PM 40.3453 -75.0792 225° Southwest 302 348 16,000 -60 Descending New York Center
03:05PM 40.2861 -75.1597 226° Southwest 308 354 16,000  Level New York Center
03:06PM 40.2203 -75.2508 227° Southwest 313 360 16,000  Level New York Center
03:07PM 40.1606 -75.3392 229° Southwest 322 371 16,100  Climbing New York Center
03:08PM 40.1058 -75.4089 224° Southwest 322 371 16,100  Level New York Center
03:09PM 40.0394 -75.5022 227° Southwest 322 371 16,100  Level New York Center
03:10PM 39.9797 -75.5847 227° Southwest 322 371 16,100  Level New York Center
03:11PM 39.9203 -75.6672 227° Southwest 322 371 16,100  Level New York Center
03:12PM 39.8703 -75.7639 236° Southwest 322 371 16,100  Level New York Center
03:13PM 39.8225 -75.8578 236° Southwest 322 371 16,100 -660 Level New York Center
03:15PM 39.7333 -76.0500 239° Southwest 319 367 14,300 -1,200 Descending Potomac TRACON
03:16PM 39.6833 -76.1333 232° Southwest 303 349 12,600 -1,680 Descending Potomac TRACON
03:17PM 39.6167 -76.2333 229° Southwest 289 333 10,800 -1,440 Descending Potomac TRACON
03:18PM 39.5833 -76.3167 243° Southwest 265 305 9,600 -1,080 Descending Potomac TRACON
03:19PM 39.5500 -76.3833 237° Southwest 265 305 8,800 -1,200 Descending Potomac TRACON
03:20PM 39.5000 -76.4667 232° Southwest 264 304 7,200 -1,260 Descending Potomac TRACON
03:21PM 39.4667 -76.5500 243° Southwest 250 288 6,200 -1,020 Descending Potomac TRACON
03:22PM 39.4333 -76.6333 243° Southwest 246 283 5,300 -660 Descending Potomac TRACON
03:23PM 39.4167 -76.7000 252° West 238 274 5,000 -360 Descending Potomac TRACON
03:24PM 39.4000 -76.7667 252° West 234 269 4,700 -540 Descending Potomac TRACON
03:25PM 39.3500 -76.8333 226° Southwest 234 269 4,000 -660 Descending Potomac TRACON
03:26PM 39.3000 -76.8500 194° South 226 260 3,400 -600 Descending Potomac TRACON